sensor_id;sensor_type;location;lat;lon;timestamp;pressure;altitude;pressure_sealevel;temperature;humidity
76853;BME280;65825;52.232;10.566;2024-03-08T00:01:09;101401.91;;;5.77;55.05
76853;BME280;65825;52.232;10.566;2024-03-08T00:03:34;101398.41;;;5.69;55.59
76853;BME280;65825;52.232;10.566;2024-03-08T00:06:00;101405.34;;;5.04;56.90
76853;BME280;65825;52.232;10.566;2024-03-08T00:08:25;101401.91;;;5.35;57.41
76853;BME280;65825;52.232;10.566;2024-03-08T00:10:50;101397.53;;;5.49;56.87
76853;BME280;65825;52.232;10.566;2024-03-08T00:13:15;101399.28;;;5.56;56.60
76853;BME280;65825;52.232;10.566;2024-03-08T00:15:41;101401.03;;;5.44;57.20
76853;BME280;65825;52.232;10.566;2024-03-08T00:18:06;101403.59;;;5.02;58.51
76853;BME280;65825;52.232;10.566;2024-03-08T00:20:31;101398.38;;;5.06;58.33
76853;BME280;65825;52.232;10.566;2024-03-08T00:22:57;101395.78;;;5.23;57.38
76853;BME280;65825;52.232;10.566;2024-03-08T00:25:23;101397.53;;;5.12;58.14
76853;BME280;65825;52.232;10.566;2024-03-08T00:27:48;101403.56;;;4.90;59.06
76853;BME280;65825;52.232;10.566;2024-03-08T00:30:14;101397.53;;;5.12;58.06
76853;BME280;65825;52.232;10.566;2024-03-08T00:32:39;101400.13;;;5.13;58.42
76853;BME280;65825;52.232;10.566;2024-03-08T00:35:05;101402.56;;;4.52;60.29
76853;BME280;65825;52.232;10.566;2024-03-08T00:37:33;101400.88;;;4.75;60.12
76853;BME280;65825;52.232;10.566;2024-03-08T00:40:01;101399.19;;;4.81;59.70
76853;BME280;65825;52.232;10.566;2024-03-08T00:42:26;101398.38;;;5.02;59.19
76853;BME280;65825;52.232;10.566;2024-03-08T00:44:52;101399.16;;;4.75;58.89
76853;BME280;65825;52.232;10.566;2024-03-08T00:47:17;101399.13;;;4.62;60.49
76853;BME280;65825;52.232;10.566;2024-03-08T00:49:42;101394.69;;;4.40;59.78
76853;BME280;65825;52.232;10.566;2024-03-08T00:52:08;101393.81;;;4.41;60.52
76853;BME280;65825;52.232;10.566;2024-03-08T00:54:34;101396.47;;;4.59;59.57
76853;BME280;65825;52.232;10.566;2024-03-08T00:57:01;101383.50;;;4.83;58.48
76853;BME280;65825;52.232;10.566;2024-03-08T00:59:30;101380.84;;;4.75;57.95
76853;BME280;65825;52.232;10.566;2024-03-08T01:01:59;101382.56;;;4.64;59.05
76853;BME280;65825;52.232;10.566;2024-03-08T01:04:28;101380.78;;;4.57;59.24
76853;BME280;65825;52.232;10.566;2024-03-08T01:06:57;101390.38;;;4.60;58.24
76853;BME280;65825;52.232;10.566;2024-03-08T01:09:26;101371.22;;;4.62;59.00
76853;BME280;65825;52.232;10.566;2024-03-08T01:11:52;101378.16;;;4.48;59.85
76853;BME280;65825;52.232;10.566;2024-03-08T01:14:20;101371.19;;;4.55;58.91
76853;BME280;65825;52.232;10.566;2024-03-08T01:16:47;101368.56;;;4.55;59.07
76853;BME280;65825;52.232;10.566;2024-03-08T01:19:13;101365.09;;;4.53;58.96
76853;BME280;65825;52.232;10.566;2024-03-08T01:21:38;101358.94;;;4.36;59.23
76853;BME280;65825;52.232;10.566;2024-03-08T01:24:04;101357.22;;;4.42;58.96
76853;BME280;65825;52.232;10.566;2024-03-08T01:26:29;101351.06;;;4.31;58.37
76853;BME280;65825;52.232;10.566;2024-03-08T01:28:54;101332.72;;;4.21;59.77
76853;BME280;65825;52.232;10.566;2024-03-08T01:31:20;101340.63;;;4.30;59.23
76853;BME280;65825;52.232;10.566;2024-03-08T01:33:45;101342.38;;;4.37;60.01
76853;BME280;65825;52.232;10.566;2024-03-08T01:36:10;101348.41;;;4.24;60.05
76853;BME280;65825;52.232;10.566;2024-03-08T01:38:35;101340.63;;;4.30;59.62
76853;BME280;65825;52.232;10.566;2024-03-08T01:41:01;101342.31;;;4.22;59.23
76853;BME280;65825;52.232;10.566;2024-03-08T01:43:28;101331.81;;;4.13;60.39
76853;BME280;65825;52.232;10.566;2024-03-08T01:45:55;101327.50;;;4.25;60.29
76853;BME280;65825;52.232;10.566;2024-03-08T01:48:23;101324.91;;;4.22;59.83
76853;BME280;65825;52.232;10.566;2024-03-08T01:50:49;101317.03;;;4.24;59.86
76853;BME280;65825;52.232;10.566;2024-03-08T01:53:15;101328.31;;;4.06;59.93
76853;BME280;65825;52.232;10.566;2024-03-08T01:55:40;101310.03;;;4.11;60.44
76853;BME280;65825;52.232;10.566;2024-03-08T01:58:06;101309.16;;;4.01;61.40
76853;BME280;65825;52.232;10.566;2024-03-08T02:00:35;101302.94;;;3.80;61.81
76853;BME280;65825;52.232;10.566;2024-03-08T02:03:02;101304.75;;;3.96;61.68
76853;BME280;65825;52.232;10.566;2024-03-08T02:05:27;101300.25;;;3.66;62.10
76853;BME280;65825;52.232;10.566;2024-03-08T02:07:53;101299.41;;;3.75;62.17
76853;BME280;65825;52.232;10.566;2024-03-08T02:10:18;101298.66;;;3.98;61.67
76853;BME280;65825;52.232;10.566;2024-03-08T02:12:44;101295.06;;;3.72;62.85
76853;BME280;65825;52.232;10.566;2024-03-08T02:15:11;101296.50;;;3.27;65.06
76853;BME280;65825;52.232;10.566;2024-03-08T02:17:36;101296.66;;;3.51;63.95
76853;BME280;65825;52.232;10.566;2024-03-08T02:20:02;101274.78;;;3.31;65.06
76853;BME280;65825;52.232;10.566;2024-03-08T02:22:30;101280.75;;;3.15;65.29
76853;BME280;65825;52.232;10.566;2024-03-08T02:24:55;101269.34;;;3.01;66.21
76853;BME280;65825;52.232;10.566;2024-03-08T02:27:24;101271.16;;;3.12;65.91
76853;BME280;65825;52.232;10.566;2024-03-08T02:29:55;101271.16;;;3.12;64.88
76853;BME280;65825;52.232;10.566;2024-03-08T02:32:24;101269.50;;;3.22;66.27
76853;BME280;65825;52.232;10.566;2024-03-08T02:34:49;101264.38;;;3.31;65.65
76853;BME280;65825;52.232;10.566;2024-03-08T02:37:15;101267.03;;;3.41;65.06
76853;BME280;65825;52.232;10.566;2024-03-08T02:39:40;101259.38;;;3.71;63.62
76853;BME280;65825;52.232;10.566;2024-03-08T02:42:06;101251.63;;;3.86;63.23
76853;BME280;65825;52.232;10.566;2024-03-08T02:44:32;101261.19;;;3.83;62.52
76853;BME280;65825;52.232;10.566;2024-03-08T02:46:58;101256.72;;;3.64;63.59
76853;BME280;65825;52.232;10.566;2024-03-08T02:49:23;101262.91;;;3.78;63.24
76853;BME280;65825;52.232;10.566;2024-03-08T02:51:49;101270.81;;;4.02;62.02
76853;BME280;65825;52.232;10.566;2024-03-08T02:54:14;101269.88;;;3.83;62.54
76853;BME280;65825;52.232;10.566;2024-03-08T02:56:42;101268.03;;;3.63;63.08
76853;BME280;65825;52.232;10.566;2024-03-08T02:59:07;101262.84;;;3.69;63.32
76853;BME280;65825;52.232;10.566;2024-03-08T03:01:33;101277.50;;;3.44;64.34
76853;BME280;65825;52.232;10.566;2024-03-08T03:03:59;101265.41;;;3.60;63.55
76853;BME280;65825;52.232;10.566;2024-03-08T03:06:25;101269.56;;;3.32;64.54
76853;BME280;65825;52.232;10.566;2024-03-08T03:08:51;101259.06;;;3.22;66.03
76853;BME280;65825;52.232;10.566;2024-03-08T03:11:16;101257.28;;;3.13;65.92
76853;BME280;65825;52.232;10.566;2024-03-08T03:13:42;101255.56;;;3.21;65.44
76853;BME280;65825;52.232;10.566;2024-03-08T03:16:17;101252.84;;;3.02;65.71
76853;BME280;65825;52.232;10.566;2024-03-08T03:18:42;101240.59;;;2.93;66.02
76853;BME280;65825;52.232;10.566;2024-03-08T03:21:08;101247.72;;;3.20;65.94
76853;BME280;65825;52.232;10.566;2024-03-08T03:23:33;101246.19;;;3.49;63.94
76853;BME280;65825;52.232;10.566;2024-03-08T03:25:58;101246.97;;;3.37;63.67
76853;BME280;65825;52.232;10.566;2024-03-08T03:28:24;101244.44;;;3.51;62.25
76853;BME280;65825;52.232;10.566;2024-03-08T03:30:50;101240.81;;;3.26;64.10
76853;BME280;65825;52.232;10.566;2024-03-08T03:33:15;101242.56;;;3.27;64.07
76853;BME280;65825;52.232;10.566;2024-03-08T03:35:41;101236.31;;;3.03;64.90
76853;BME280;65825;52.232;10.566;2024-03-08T03:38:08;101249.56;;;3.31;64.05
76853;BME280;65825;52.232;10.566;2024-03-08T03:40:33;101238.16;;;3.17;64.47
76853;BME280;65825;52.232;10.566;2024-03-08T03:42:59;101245.31;;;3.50;63.63
76853;BME280;65825;52.232;10.566;2024-03-08T03:45:24;101245.28;;;3.44;62.63
76853;BME280;65825;52.232;10.566;2024-03-08T03:47:50;101243.50;;;3.34;62.70
76853;BME280;65825;52.232;10.566;2024-03-08T03:50:16;101232.25;;;3.45;62.57
76853;BME280;65825;52.232;10.566;2024-03-08T03:52:44;101237.38;;;3.26;63.39
76853;BME280;65825;52.232;10.566;2024-03-08T03:55:09;101234.75;;;3.29;62.98
76853;BME280;65825;52.232;10.566;2024-03-08T03:57:36;101232.28;;;3.47;61.98
76853;BME280;65825;52.232;10.566;2024-03-08T04:00:02;101233.94;;;3.37;62.23
76853;BME280;65825;52.232;10.566;2024-03-08T04:02:27;101240.00;;;3.35;62.36
76853;BME280;65825;52.232;10.566;2024-03-08T04:04:53;101235.56;;;3.20;62.37
76853;BME280;65825;52.232;10.566;2024-03-08T04:07:19;101233.94;;;3.37;61.47
76853;BME280;65825;52.232;10.566;2024-03-08T04:09:45;101230.50;;;3.46;61.25
76853;BME280;65825;52.232;10.566;2024-03-08T04:12:11;101230.53;;;3.47;60.79
76853;BME280;65825;52.232;10.566;2024-03-08T04:14:36;101218.28;;;3.34;61.62
76853;BME280;65825;52.232;10.566;2024-03-08T04:17:02;101231.31;;;3.33;61.59
76853;BME280;65825;52.232;10.566;2024-03-08T04:19:27;101236.44;;;3.18;62.17
76853;BME280;65825;52.232;10.566;2024-03-08T04:21:53;101241.66;;;2.22;64.66
76853;BME280;65825;52.232;10.566;2024-03-08T04:24:18;101235.94;;;2.56;65.34
76853;BME280;65825;52.232;10.566;2024-03-08T04:26:43;101232.59;;;2.74;65.44
76853;BME280;65825;52.232;10.566;2024-03-08T04:29:08;101230.81;;;2.67;65.49
76853;BME280;65825;52.232;10.566;2024-03-08T04:31:34;101229.22;;;2.82;65.83
76853;BME280;65825;52.232;10.566;2024-03-08T04:33:59;101235.97;;;2.61;65.44
76853;BME280;65825;52.232;10.566;2024-03-08T04:36:24;101233.28;;;2.52;65.75
76853;BME280;65825;52.232;10.566;2024-03-08T04:38:50;101227.56;;;2.93;65.30
76853;BME280;65825;52.232;10.566;2024-03-08T04:41:16;101222.34;;;2.92;64.91
76853;BME280;65825;52.232;10.566;2024-03-08T04:43:42;101224.84;;;2.80;64.91
76853;BME280;65825;52.232;10.566;2024-03-08T04:46:07;101232.72;;;2.86;64.62
76853;BME280;65825;52.232;10.566;2024-03-08T04:48:32;101231.69;;;2.67;64.47
76853;BME280;65825;52.232;10.566;2024-03-08T04:50:58;101230.97;;;2.85;65.20
76853;BME280;65825;52.232;10.566;2024-03-08T04:53:23;101222.34;;;2.96;63.84
76853;BME280;65825;52.232;10.566;2024-03-08T04:55:48;101234.56;;;3.00;63.07
76853;BME280;65825;52.232;10.566;2024-03-08T04:58:14;101225.00;;;3.04;63.22
76853;BME280;65825;52.232;10.566;2024-03-08T05:00:39;101231.06;;;2.97;62.82
76853;BME280;65825;52.232;10.566;2024-03-08T05:03:04;101225.94;;;3.09;62.84
76853;BME280;65825;52.232;10.566;2024-03-08T05:05:30;101239.63;;;2.81;63.25
76853;BME280;65825;52.232;10.566;2024-03-08T05:07:56;101231.88;;;2.91;63.01
76853;BME280;65825;52.232;10.566;2024-03-08T05:10:21;101230.81;;;2.67;64.22
76853;BME280;65825;52.232;10.566;2024-03-08T05:12:46;101225.63;;;2.70;65.04
76853;BME280;65825;52.232;10.566;2024-03-08T05:15:12;101226.66;;;2.88;63.47
76853;BME280;65825;52.232;10.566;2024-03-08T05:17:37;101222.28;;;2.86;62.99
76853;BME280;65825;52.232;10.566;2024-03-08T05:20:05;101222.72;;;2.38;64.41
76853;BME280;65825;52.232;10.566;2024-03-08T05:22:33;101225.34;;;2.40;64.20
76853;BME280;65825;52.232;10.566;2024-03-08T05:24:58;101227.19;;;2.50;64.04
76853;BME280;65825;52.232;10.566;2024-03-08T05:27:23;101233.56;;;1.95;64.61
76853;BME280;65825;52.232;10.566;2024-03-08T05:29:48;101228.28;;;1.89;65.75
76853;BME280;65825;52.232;10.566;2024-03-08T05:32:14;101204.66;;;1.73;66.86
76853;BME280;65825;52.232;10.566;2024-03-08T05:34:39;101236.09;;;1.91;66.50
76853;BME280;65825;52.232;10.566;2024-03-08T05:37:04;101227.03;;;1.60;67.13
76853;BME280;65825;52.232;10.566;2024-03-08T05:39:30;101228.13;;;1.77;67.36
76853;BME280;65825;52.232;10.566;2024-03-08T05:41:55;101227.31;;;1.81;67.48
76853;BME280;65825;52.232;10.566;2024-03-08T05:44:21;101214.03;;;2.36;66.21
76853;BME280;65825;52.232;10.566;2024-03-08T05:46:46;101219.16;;;2.27;66.52
76853;BME280;65825;52.232;10.566;2024-03-08T05:49:11;101221.97;;;2.50;66.75
76853;BME280;65825;52.232;10.566;2024-03-08T05:51:38;101206.59;;;2.80;65.15
76853;BME280;65825;52.232;10.566;2024-03-08T05:54:05;101217.81;;;2.71;64.62
76853;BME280;65825;52.232;10.566;2024-03-08T05:56:33;101217.13;;;2.93;64.25
76853;BME280;65825;52.232;10.566;2024-03-08T05:58:58;101216.19;;;2.85;64.05
76853;BME280;65825;52.232;10.566;2024-03-08T06:01:24;101220.63;;;2.95;63.29
76853;BME280;65825;52.232;10.566;2024-03-08T06:03:50;101219.75;;;2.96;63.17
76853;BME280;65825;52.232;10.566;2024-03-08T06:06:15;101224.97;;;2.98;63.29
76853;BME280;65825;52.232;10.566;2024-03-08T06:08:42;101223.19;;;2.94;63.24
76853;BME280;65825;52.232;10.566;2024-03-08T06:11:09;101220.63;;;2.95;62.99
76853;BME280;65825;52.232;10.566;2024-03-08T06:13:34;101211.78;;;2.77;63.65
76853;BME280;65825;52.232;10.566;2024-03-08T06:16:03;101219.69;;;2.86;63.01
76853;BME280;65825;52.232;10.566;2024-03-08T06:18:32;101216.25;;;2.90;63.41
76853;BME280;65825;52.232;10.566;2024-03-08T06:20:57;101219.72;;;2.92;63.16
76853;BME280;65825;52.232;10.566;2024-03-08T06:23:23;101219.66;;;2.83;63.68
76853;BME280;65825;52.232;10.566;2024-03-08T06:25:48;101222.28;;;2.84;63.82
76853;BME280;65825;52.232;10.566;2024-03-08T06:28:14;101225.72;;;2.82;63.90
76853;BME280;65825;52.232;10.566;2024-03-08T06:30:39;101216.09;;;2.76;64.12
76853;BME280;65825;52.232;10.566;2024-03-08T06:33:04;101208.19;;;2.63;64.42
76853;BME280;65825;52.232;10.566;2024-03-08T06:35:30;101220.34;;;2.61;65.78
76853;BME280;65825;52.232;10.566;2024-03-08T06:37:57;101222.06;;;2.60;65.94
76853;BME280;65825;52.232;10.566;2024-03-08T06:40:22;101217.72;;;2.61;64.89
76853;BME280;65825;52.232;10.566;2024-03-08T06:42:48;101205.75;;;2.82;64.55
76853;BME280;65825;52.232;10.566;2024-03-08T06:45:13;101212.91;;;3.10;63.87
76853;BME280;65825;52.232;10.566;2024-03-08T06:47:44;101219.00;;;3.14;63.66
76853;BME280;65825;52.232;10.566;2024-03-08T06:50:09;101198.91;;;3.02;63.53
76853;BME280;65825;52.232;10.566;2024-03-08T06:52:34;101211.00;;;2.91;64.70
76853;BME280;65825;52.232;10.566;2024-03-08T06:55:00;101205.09;;;3.13;64.70
76853;BME280;65825;52.232;10.566;2024-03-08T06:57:26;101209.59;;;3.35;64.14
76853;BME280;65825;52.232;10.566;2024-03-08T06:59:51;101212.25;;;3.49;64.44
76853;BME280;65825;52.232;10.566;2024-03-08T07:02:17;101216.66;;;3.54;63.67
76853;BME280;65825;52.232;10.566;2024-03-08T07:04:42;101216.78;;;3.87;63.54
76853;BME280;65825;52.232;10.566;2024-03-08T07:07:07;101217.69;;;3.94;63.06
76853;BME280;65825;52.232;10.566;2024-03-08T07:09:36;101214.25;;;4.13;63.28
76853;BME280;65825;52.232;10.566;2024-03-08T07:12:02;101209.09;;;4.43;66.57
76853;BME280;65825;52.232;10.566;2024-03-08T07:14:27;101196.91;;;4.36;64.71
76853;BME280;65825;52.232;10.566;2024-03-08T07:16:52;101210.66;;;3.78;63.44
76853;BME280;65825;52.232;10.566;2024-03-08T07:19:18;101203.84;;;4.49;63.73
76853;BME280;65825;52.232;10.566;2024-03-08T07:21:44;101208.13;;;4.02;63.10
76853;BME280;65825;52.232;10.566;2024-03-08T07:24:10;101199.50;;;4.54;63.36
76853;BME280;65825;52.232;10.566;2024-03-08T07:26:38;101202.13;;;4.60;62.62
76853;BME280;65825;52.232;10.566;2024-03-08T07:29:03;101201.19;;;4.14;63.71
76853;BME280;65825;52.232;10.566;2024-03-08T07:31:29;101203.66;;;3.68;63.44
76853;BME280;65825;52.232;10.566;2024-03-08T07:34:10;101198.66;;;4.67;62.79
76853;BME280;65825;52.232;10.566;2024-03-08T07:36:36;101205.59;;;4.32;62.79
76853;BME280;65825;52.232;10.566;2024-03-08T07:39:01;101197.78;;;4.66;61.91
76853;BME280;65825;52.232;10.566;2024-03-08T07:41:26;101189.91;;;4.87;61.22
76853;BME280;65825;52.232;10.566;2024-03-08T07:43:52;101189.91;;;4.96;60.60
76853;BME280;65825;52.232;10.566;2024-03-08T07:46:18;101190.78;;;5.12;60.33
76853;BME280;65825;52.232;10.566;2024-03-08T07:48:46;101194.28;;;4.93;60.11
76853;BME280;65825;52.232;10.566;2024-03-08T07:51:11;101193.34;;;5.36;60.93
76853;BME280;65825;52.232;10.566;2024-03-08T07:53:37;101189.03;;;4.99;60.49
76853;BME280;65825;52.232;10.566;2024-03-08T07:56:03;101184.59;;;5.37;59.15
76853;BME280;65825;52.232;10.566;2024-03-08T07:58:30;101183.66;;;5.65;59.49
76853;BME280;65825;52.232;10.566;2024-03-08T08:00:55;101179.41;;;5.23;59.43
76853;BME280;65825;52.232;10.566;2024-03-08T08:03:20;101187.16;;;5.62;59.67
76853;BME280;65825;52.232;10.566;2024-03-08T08:05:46;101180.16;;;5.66;58.55
76853;BME280;65825;52.232;10.566;2024-03-08T08:08:11;101170.44;;;5.90;58.81
76853;BME280;65825;52.232;10.566;2024-03-08T08:10:37;101171.34;;;5.89;58.10
76853;BME280;65825;52.232;10.566;2024-03-08T08:13:02;101174.81;;;5.93;59.26
76853;BME280;65825;52.232;10.566;2024-03-08T08:15:29;101156.97;;;6.52;57.71
76853;BME280;65825;52.232;10.566;2024-03-08T08:17:55;101157.75;;;6.61;57.24
76853;BME280;65825;52.232;10.566;2024-03-08T08:20:20;101165.00;;;6.26;57.20
76853;BME280;65825;52.232;10.566;2024-03-08T08:22:46;101144.50;;;6.75;56.98
76853;BME280;65825;52.232;10.566;2024-03-08T08:25:13;101151.47;;;6.79;55.83
76853;BME280;65825;52.232;10.566;2024-03-08T08:27:40;101154.78;;;6.97;55.75
76853;BME280;65825;52.232;10.566;2024-03-08T08:30:08;101150.00;;;7.35;54.46
76853;BME280;65825;52.232;10.566;2024-03-08T08:32:37;101150.28;;;7.82;54.42
76853;BME280;65825;52.232;10.566;2024-03-08T08:35:03;101152.91;;;7.82;53.62
76853;BME280;65825;52.232;10.566;2024-03-08T08:37:30;101140.72;;;7.78;53.51
76853;BME280;65825;52.232;10.566;2024-03-08T08:39:56;101141.56;;;7.80;53.33
76853;BME280;65825;52.232;10.566;2024-03-08T08:42:21;101141.50;;;7.14;54.83
76853;BME280;65825;52.232;10.566;2024-03-08T08:44:46;101141.50;;;7.85;54.10
76853;BME280;65825;52.232;10.566;2024-03-08T08:47:12;101127.84;;;8.24;53.19
76853;BME280;65825;52.232;10.566;2024-03-08T08:49:38;101135.03;;;7.45;53.75
76853;BME280;65825;52.232;10.566;2024-03-08T08:52:04;101131.16;;;7.73;53.46
76853;BME280;65825;52.232;10.566;2024-03-08T08:54:29;101128.75;;;8.18;52.74
76853;BME280;65825;52.232;10.566;2024-03-08T08:56:54;101124.41;;;8.14;52.91
76853;BME280;65825;52.232;10.566;2024-03-08T08:59:19;101129.66;;;8.14;52.42
76853;BME280;65825;52.232;10.566;2024-03-08T09:01:45;101129.00;;;8.59;51.85
76853;BME280;65825;52.232;10.566;2024-03-08T09:04:12;101112.66;;;8.91;50.99
76853;BME280;65825;52.232;10.566;2024-03-08T09:06:38;101114.09;;;8.60;52.08
76853;BME280;65825;52.232;10.566;2024-03-08T09:09:03;101117.81;;;8.97;51.21
76853;BME280;65825;52.232;10.566;2024-03-08T09:11:30;101118.22;;;9.20;51.13
76853;BME280;65825;52.232;10.566;2024-03-08T09:13:55;101114.81;;;9.98;49.59
76853;BME280;65825;52.232;10.566;2024-03-08T09:16:20;101113.53;;;9.37;50.01
76853;BME280;65825;52.232;10.566;2024-03-08T09:18:45;101105.66;;;9.34;49.75
76853;BME280;65825;52.232;10.566;2024-03-08T09:21:11;101100.84;;;9.95;49.85
76853;BME280;65825;52.232;10.566;2024-03-08T09:23:38;101092.47;;;10.52;48.25
76853;BME280;65825;52.232;10.566;2024-03-08T09:26:03;101103.41;;;9.58;50.68
76853;BME280;65825;52.232;10.566;2024-03-08T09:28:29;101090.06;;;10.05;48.77
76853;BME280;65825;52.232;10.566;2024-03-08T09:30:54;101085.84;;;9.97;49.41
76853;BME280;65825;52.232;10.566;2024-03-08T09:33:20;101071.56;;;10.07;48.78
76853;BME280;65825;52.232;10.566;2024-03-08T09:35:46;101076.34;;;9.90;49.95
76853;BME280;65825;52.232;10.566;2024-03-08T09:38:12;101065.06;;;10.56;48.50
76853;BME280;65825;52.232;10.566;2024-03-08T09:40:41;101052.63;;;11.24;47.80
76853;BME280;65825;52.232;10.566;2024-03-08T09:43:06;101055.59;;;11.73;47.45
76853;BME280;65825;52.232;10.566;2024-03-08T09:45:31;101037.06;;;11.44;46.23
76853;BME280;65825;52.232;10.566;2024-03-08T09:48:01;101039.41;;;12.11;45.45
76853;BME280;65825;52.232;10.566;2024-03-08T09:50:26;101049.19;;;12.35;44.38
76853;BME280;65825;52.232;10.566;2024-03-08T09:52:53;101028.31;;;12.26;45.26
76853;BME280;65825;52.232;10.566;2024-03-08T09:55:22;101025.41;;;12.84;44.81
76853;BME280;65825;52.232;10.566;2024-03-08T09:57:47;101021.34;;;12.74;44.71
76853;BME280;65825;52.232;10.566;2024-03-08T10:00:33;101021.59;;;12.91;43.58
76853;BME280;65825;52.232;10.566;2024-03-08T10:03:01;101010.50;;;13.06;44.15
76853;BME280;65825;52.232;10.566;2024-03-08T10:05:27;101021.97;;;12.56;44.16
76853;BME280;65825;52.232;10.566;2024-03-08T10:07:52;101013.97;;;12.33;45.27
76853;BME280;65825;52.232;10.566;2024-03-08T10:10:19;101020.06;;;12.35;44.79
76853;BME280;65825;52.232;10.566;2024-03-08T10:12:46;101000.34;;;13.17;43.86
76853;BME280;65825;52.232;10.566;2024-03-08T10:15:11;101004.50;;;13.47;42.52
76853;BME280;65825;52.232;10.566;2024-03-08T10:17:37;101001.34;;;13.82;42.24
76853;BME280;65825;52.232;10.566;2024-03-08T10:20:14;101008.00;;;11.44;45.11
76853;BME280;65825;52.232;10.566;2024-03-08T10:22:40;101011.72;;;12.21;45.37
76853;BME280;65825;52.232;10.566;2024-03-08T10:25:10;101006.56;;;12.42;43.27
76853;BME280;65825;52.232;10.566;2024-03-08T10:27:36;100990.75;;;13.37;43.51
76853;BME280;65825;52.232;10.566;2024-03-08T10:30:02;100990.28;;;12.02;45.31
76853;BME280;65825;52.232;10.566;2024-03-08T10:32:27;100998.81;;;11.84;44.56
76853;BME280;65825;52.232;10.566;2024-03-08T10:34:52;100989.41;;;13.26;45.01
76853;BME280;65825;52.232;10.566;2024-03-08T10:37:21;100989.03;;;13.81;42.38
76853;BME280;65825;52.232;10.566;2024-03-08T10:40:02;100986.31;;;12.66;43.17
76853;BME280;65825;52.232;10.566;2024-03-08T10:42:40;100984.41;;;12.94;42.15
76853;BME280;65825;52.232;10.566;2024-03-08T10:45:15;100981.84;;;14.26;41.59
76853;BME280;65825;52.232;10.566;2024-03-08T10:47:49;100976.97;;;13.94;42.72
76853;BME280;65825;52.232;10.566;2024-03-08T10:50:19;100972.03;;;13.85;41.30
76853;BME280;65825;52.232;10.566;2024-03-08T10:52:51;100976.75;;;13.55;42.30
76853;BME280;65825;52.232;10.566;2024-03-08T10:55:18;100972.06;;;13.40;42.13
76853;BME280;65825;52.232;10.566;2024-03-08T10:57:45;100980.34;;;14.19;41.98
76853;BME280;65825;52.232;10.566;2024-03-08T11:00:12;100984.34;;;13.20;43.73
76853;BME280;65825;52.232;10.566;2024-03-08T11:02:38;100963.13;;;12.95;41.48
76853;BME280;65825;52.232;10.566;2024-03-08T11:05:04;100962.31;;;12.70;41.61
76853;BME280;65825;52.232;10.566;2024-03-08T11:07:34;100960.69;;;13.37;41.29
76853;BME280;65825;52.232;10.566;2024-03-08T11:10:03;100947.03;;;13.47;41.52
76853;BME280;65825;52.232;10.566;2024-03-08T11:12:37;100945.13;;;13.28;42.94
76853;BME280;65825;52.232;10.566;2024-03-08T11:15:11;100945.94;;;13.74;42.85
76853;BME280;65825;52.232;10.566;2024-03-08T11:20:08;100947.75;;;13.72;41.07
76853;BME280;65825;52.232;10.566;2024-03-08T11:22:38;100936.25;;;13.73;41.65
76853;BME280;65825;52.232;10.566;2024-03-08T11:25:08;100930.88;;;13.75;41.58
76853;BME280;65825;52.232;10.566;2024-03-08T11:27:35;100926.53;;;13.72;41.35
76853;BME280;65825;52.232;10.566;2024-03-08T11:30:06;100934.50;;;12.82;41.85
76853;BME280;65825;52.232;10.566;2024-03-08T11:32:38;100920.22;;;12.86;41.79
76853;BME280;65825;52.232;10.566;2024-03-08T11:35:18;100910.06;;;13.86;41.95
76853;BME280;65825;52.232;10.566;2024-03-08T11:37:44;100904.94;;;14.63;40.85
76853;BME280;65825;52.232;10.566;2024-03-08T11:40:13;100907.75;;;14.60;42.13
76853;BME280;65825;52.232;10.566;2024-03-08T11:42:45;100897.81;;;14.83;41.10
76853;BME280;65825;52.232;10.566;2024-03-08T11:45:17;100891.44;;;14.49;40.72
76853;BME280;65825;52.232;10.566;2024-03-08T11:47:43;100907.09;;;14.93;40.27
76853;BME280;65825;52.232;10.566;2024-03-08T11:50:11;100905.69;;;15.05;41.01
76853;BME280;65825;52.232;10.566;2024-03-08T11:52:37;100899.72;;;15.18;39.63
76853;BME280;65825;52.232;10.566;2024-03-08T11:55:03;100894.81;;;15.82;39.27
76853;BME280;65825;52.232;10.566;2024-03-08T11:57:30;100898.91;;;15.53;38.47
76853;BME280;65825;52.232;10.566;2024-03-08T11:59:56;100893.16;;;15.25;38.84
76853;BME280;65825;52.232;10.566;2024-03-08T12:02:31;100873.22;;;16.05;41.02
76853;BME280;65825;52.232;10.566;2024-03-08T12:04:57;100867.09;;;16.03;38.48
76853;BME280;65825;52.232;10.566;2024-03-08T12:07:24;100857.66;;;16.48;37.55
76853;BME280;65825;52.232;10.566;2024-03-08T12:10:15;100870.72;;;15.31;37.24
76853;BME280;65825;52.232;10.566;2024-03-08T12:12:44;100861.97;;;14.92;38.74
76853;BME280;65825;52.232;10.566;2024-03-08T12:15:09;100849.25;;;16.56;37.37
76853;BME280;65825;52.232;10.566;2024-03-08T12:17:36;100850.72;;;15.59;37.65
76853;BME280;65825;52.232;10.566;2024-03-08T12:20:25;100847.94;;;15.44;37.75
76853;BME280;65825;52.232;10.566;2024-03-08T12:22:52;100830.66;;;14.41;39.57
76853;BME280;65825;52.232;10.566;2024-03-08T12:25:18;100837.28;;;14.51;39.76
76853;BME280;65825;52.232;10.566;2024-03-08T12:27:45;100833.50;;;14.17;38.68
76853;BME280;65825;52.232;10.566;2024-03-08T12:30:24;100827.81;;;14.26;39.71
76853;BME280;65825;52.232;10.566;2024-03-08T12:32:59;100820.81;;;14.43;39.40
76853;BME280;65825;52.232;10.566;2024-03-08T12:35:29;100823.34;;;15.39;37.61
76853;BME280;65825;52.232;10.566;2024-03-08T12:37:59;100809.84;;;14.51;38.83
76853;BME280;65825;52.232;10.566;2024-03-08T12:40:29;100814.81;;;14.95;39.41
76853;BME280;65825;52.232;10.566;2024-03-08T12:42:58;100819.72;;;14.86;38.13
76853;BME280;65825;52.232;10.566;2024-03-08T12:45:24;100813.47;;;14.87;39.63
76853;BME280;65825;52.232;10.566;2024-03-08T12:47:53;100802.91;;;14.85;38.47